createdAt,value
2023-03-07T00:02:18.668Z,9.67
2023-03-07T00:07:18.938Z,9.83
2023-03-07T00:12:29.367Z,7.83
2023-03-07T00:14:59.526Z,9.60
2023-03-07T00:17:29.746Z,7.13
2023-03-07T00:19:59.840Z,8.53
2023-03-07T00:22:29.945Z,8.47
2023-03-07T00:25:02.830Z,6.73
2023-03-07T00:27:40.268Z,6.83
2023-03-07T00:30:12.802Z,7.60
2023-03-07T00:32:42.946Z,7.07
2023-03-07T00:35:16.046Z,6.33
2023-03-07T00:37:46.167Z,5.97
2023-03-07T00:40:21.439Z,5.13
2023-03-07T00:42:51.572Z,4.83
2023-03-07T00:45:21.768Z,4.83
2023-03-07T00:47:52.375Z,5.07
2023-03-07T00:50:22.600Z,4.77
2023-03-07T00:52:52.718Z,5.00
2023-03-07T00:55:25.501Z,3.70
2023-03-07T00:57:55.584Z,5.00
2023-03-07T01:00:25.885Z,4.23
2023-03-07T01:02:58.647Z,4.50
2023-03-07T01:05:30.405Z,3.60
2023-03-07T01:08:00.526Z,3.67
2023-03-07T01:10:33.553Z,3.57
2023-03-07T01:13:04.873Z,3.97
2023-03-07T01:15:37.199Z,3.00
2023-03-07T01:18:08.563Z,4.10
2023-03-07T01:20:42.651Z,3.27
2023-03-07T01:23:12.812Z,3.03
2023-03-07T01:25:48.776Z,2.73
2023-03-07T01:28:19.965Z,2.63
2023-03-07T01:31:01.116Z,2.40
2023-03-07T01:33:31.218Z,2.10
2023-03-07T01:36:01.574Z,2.03
2023-03-07T01:38:34.181Z,2.40
2023-03-07T01:41:09.914Z,2.10
2023-03-07T01:43:40.612Z,2.43
2023-03-07T01:46:43.948Z,2.20
2023-03-07T01:49:23.745Z,2.57
2023-03-07T01:52:02.400Z,2.43
2023-03-07T01:54:36.867Z,2.50
2023-03-07T01:57:10.850Z,2.00
2023-03-07T01:59:49.416Z,1.47
2023-03-07T02:02:24.967Z,2.77
2023-03-07T02:05:04.435Z,2.53
2023-03-07T02:07:43.480Z,2.33
2023-03-07T02:10:18.323Z,2.57
2023-03-07T02:12:51.706Z,2.50
2023-03-07T02:15:22.267Z,2.13
2023-03-07T02:17:56.569Z,2.70
2023-03-07T02:20:43.552Z,2.10
2023-03-07T02:23:26.765Z,2.80
2023-03-07T02:26:07.661Z,2.47
2023-03-07T02:28:43.323Z,2.67
2023-03-07T02:31:14.142Z,2.80
2023-03-07T02:33:44.276Z,2.30
2023-03-07T02:36:21.818Z,3.50
2023-03-07T02:38:55.816Z,3.17
2023-03-07T02:41:33.147Z,3.60
2023-03-07T02:44:05.907Z,3.70
2023-03-07T02:46:39.049Z,3.27
2023-03-07T02:49:09.116Z,4.13
2023-03-07T02:51:39.245Z,3.57
2023-03-07T02:54:10.828Z,3.83
2023-03-07T02:56:41.069Z,3.57
2023-03-07T02:59:14.043Z,3.53
2023-03-07T03:01:44.294Z,4.47
2023-03-07T03:04:14.672Z,3.97
2023-03-07T03:06:45.640Z,3.97
2023-03-07T03:09:15.926Z,4.63
2023-03-07T03:11:46.505Z,4.83
2023-03-07T03:14:19.228Z,3.87
2023-03-07T03:16:49.760Z,4.13
2023-03-07T03:19:19.908Z,3.90
2023-03-07T03:21:53.354Z,4.90
2023-03-07T03:24:23.473Z,5.10
2023-03-07T03:26:53.723Z,5.23
2023-03-07T03:29:27.730Z,4.80
2023-03-07T03:31:58.017Z,4.67
2023-03-07T03:34:28.392Z,5.93
2023-03-07T03:36:58.896Z,4.70
2023-03-07T03:39:29.573Z,5.47
2023-03-07T03:42:00.063Z,6.33
2023-03-07T03:44:32.765Z,4.30
2023-03-07T03:47:03.415Z,5.77
2023-03-07T03:49:36.137Z,5.50
2023-03-07T03:52:07.725Z,6.00
2023-03-07T03:54:38.690Z,5.33
2023-03-07T03:57:09.029Z,7.20
2023-03-07T03:59:41.791Z,5.80
2023-03-07T04:02:12.540Z,6.53
2023-03-07T04:04:42.827Z,7.57
2023-03-07T04:07:12.985Z,7.07
2023-03-07T04:09:44.042Z,6.40
2023-03-07T04:12:14.220Z,7.53
2023-03-07T04:14:47.007Z,7.87
2023-03-07T04:17:17.190Z,5.90
2023-03-07T04:19:47.330Z,6.90
2023-03-07T04:22:17.567Z,6.87
2023-03-07T04:24:48.518Z,6.13
2023-03-07T04:27:18.761Z,7.90
2023-03-07T04:29:51.949Z,8.17
2023-03-07T04:32:22.116Z,8.60
2023-03-07T04:34:52.260Z,7.37
2023-03-07T04:37:22.412Z,10.03
2023-03-07T04:39:52.500Z,7.37
2023-03-07T04:42:22.666Z,10.43
2023-03-07T04:44:55.349Z,8.53
2023-03-07T04:47:25.475Z,8.40
2023-03-07T04:49:55.742Z,10.10
2023-03-07T04:52:25.903Z,10.37
2023-03-07T04:54:56.004Z,10.33
2023-03-07T04:57:26.191Z,11.10
2023-03-07T04:59:58.906Z,9.13
2023-03-07T05:02:30.620Z,9.47
2023-03-07T05:05:05.921Z,9.70
2023-03-07T05:07:38.876Z,10.37
2023-03-07T05:10:11.333Z,7.30
2023-03-07T05:12:41.542Z,9.40
2023-03-07T05:15:17.114Z,8.97
2023-03-07T05:17:47.227Z,11.93
2023-03-07T05:20:17.508Z,9.77
2023-03-07T05:22:47.899Z,19.47
2023-03-07T05:25:18.071Z,15.03
2023-03-07T05:27:48.361Z,30.40
2023-03-07T05:30:21.716Z,23.90
2023-03-07T05:32:51.822Z,9.90
2023-03-07T05:35:25.155Z,9.17
2023-03-07T05:37:55.576Z,10.27
2023-03-07T05:40:25.807Z,11.00
2023-03-07T05:42:56.167Z,10.80
2023-03-07T05:45:28.929Z,12.00
2023-03-07T05:47:58.996Z,10.13
2023-03-07T05:50:30.730Z,9.80
2023-03-07T05:53:00.874Z,10.00
2023-03-07T05:55:31.044Z,11.07
2023-03-07T05:58:01.148Z,12.63
2023-03-07T06:00:35.190Z,9.73
2023-03-07T06:03:06.578Z,10.73
2023-03-07T06:05:37.179Z,10.30
2023-03-07T06:08:07.860Z,9.73
2023-03-07T06:10:41.127Z,9.67
2023-03-07T06:13:18.266Z,10.67
2023-03-07T06:15:53.192Z,11.20
2023-03-07T06:18:28.043Z,10.13
2023-03-07T06:21:00.778Z,9.13
2023-03-07T06:23:36.311Z,9.90
2023-03-07T06:26:08.392Z,10.97
2023-03-07T06:28:39.737Z,8.27
2023-03-07T06:31:18.624Z,9.73
2023-03-07T06:33:50.364Z,8.37
2023-03-07T06:36:26.558Z,10.07
2023-03-07T06:38:56.714Z,10.53
2023-03-07T06:41:26.823Z,11.37
2023-03-07T06:43:57.244Z,10.03
2023-03-07T06:46:30.107Z,8.63
2023-03-07T06:49:02.744Z,10.40
2023-03-07T06:51:32.873Z,9.63
2023-03-07T06:54:03.107Z,9.97
2023-03-07T06:56:34.400Z,10.37
2023-03-07T06:59:04.939Z,9.23
2023-03-07T07:01:38.328Z,7.67
2023-03-07T07:04:08.939Z,9.53
2023-03-07T07:06:39.015Z,8.40
2023-03-07T07:09:09.283Z,9.07
2023-03-07T07:11:39.447Z,11.10
2023-03-07T07:14:11.996Z,8.73
2023-03-07T07:16:45.040Z,8.27
2023-03-07T07:19:15.160Z,7.80
2023-03-07T07:21:45.746Z,9.43
2023-03-07T07:24:18.564Z,11.73
2023-03-07T07:26:48.699Z,9.57
2023-03-07T07:29:18.838Z,9.20
2023-03-07T07:31:52.368Z,9.50
2023-03-07T07:34:22.515Z,8.57
2023-03-07T07:36:53.310Z,10.00
2023-03-07T07:39:25.380Z,9.97
2023-03-07T07:41:55.610Z,13.40
2023-03-07T07:44:28.196Z,10.63
2023-03-07T07:47:01.041Z,9.57
2023-03-07T07:49:31.407Z,10.03
2023-03-07T07:52:01.877Z,7.53
2023-03-07T07:54:34.964Z,9.47
2023-03-07T07:57:05.187Z,8.27
2023-03-07T07:59:35.568Z,7.73
2023-03-07T08:02:08.457Z,9.63
2023-03-07T08:04:38.562Z,7.03
2023-03-07T08:07:08.700Z,8.13
2023-03-07T08:09:38.918Z,7.47
2023-03-07T08:12:13.696Z,7.70
2023-03-07T08:14:43.938Z,8.97
2023-03-07T08:17:18.925Z,7.40
2023-03-07T08:19:49.069Z,8.43
2023-03-07T08:22:19.624Z,6.97
2023-03-07T08:24:51.123Z,7.93
2023-03-07T08:27:21.279Z,8.33
2023-03-07T08:29:52.037Z,9.40
2023-03-07T08:32:27.735Z,11.13
2023-03-07T08:34:57.992Z,7.57
2023-03-07T08:37:28.213Z,7.23
2023-03-07T08:39:58.372Z,9.53
2023-03-07T08:42:28.630Z,10.57
2023-03-07T08:44:58.823Z,9.73
2023-03-07T08:47:33.860Z,7.37
2023-03-07T08:50:04.317Z,6.60
2023-03-07T08:52:34.716Z,7.60
2023-03-07T08:55:04.843Z,7.23
2023-03-07T08:57:35.044Z,5.97
2023-03-07T09:00:08.266Z,9.90
2023-03-07T09:02:41.525Z,6.17
2023-03-07T09:05:23.001Z,7.23
2023-03-07T09:07:53.415Z,6.83
2023-03-07T09:10:23.907Z,8.00
2023-03-07T09:12:55.335Z,6.30
2023-03-07T09:15:25.633Z,5.27
2023-03-07T09:17:58.454Z,5.13
2023-03-07T09:20:29.268Z,4.97
2023-03-07T09:22:59.334Z,4.97
2023-03-07T09:25:30.249Z,7.03
2023-03-07T09:28:00.809Z,5.80
2023-03-07T09:30:33.247Z,4.93
2023-03-07T09:33:08.346Z,5.83
2023-03-07T09:35:38.562Z,4.83
2023-03-07T09:38:08.814Z,6.83
2023-03-07T09:40:41.386Z,4.23
2023-03-07T09:43:22.208Z,5.10
2023-03-07T09:46:16.060Z,4.87
2023-03-07T09:49:20.736Z,4.30
2023-03-07T09:51:56.554Z,4.63
2023-03-07T09:54:35.908Z,4.73
2023-03-07T09:57:08.183Z,4.67
2023-03-07T09:59:44.578Z,4.53
2023-03-07T10:02:30.304Z,3.50
2023-03-07T10:05:16.530Z,6.00
2023-03-07T10:07:48.297Z,4.03
2023-03-07T10:10:25.530Z,3.67
2023-03-07T10:13:15.910Z,4.63
2023-03-07T10:15:50.378Z,5.43
2023-03-07T10:18:37.404Z,4.60
2023-03-07T10:21:28.167Z,9.47
2023-03-07T10:24:45.113Z,7.53
2023-03-07T10:27:18.730Z,3.33
2023-03-07T10:29:52.282Z,4.77
2023-03-07T10:32:35.044Z,3.63
2023-03-07T10:35:21.958Z,5.20
2023-03-07T10:38:02.353Z,3.30
2023-03-07T10:40:39.317Z,3.17
2023-03-07T10:43:09.785Z,4.73
2023-03-07T10:45:43.841Z,4.33
2023-03-07T10:48:22.503Z,4.60
2023-03-07T10:51:05.818Z,5.07
2023-03-07T10:53:42.081Z,4.97
2023-03-07T10:56:16.605Z,4.10
2023-03-07T10:59:04.163Z,5.00
2023-03-07T11:01:36.507Z,4.43
2023-03-07T11:04:22.883Z,3.50
2023-03-07T11:06:57.991Z,5.53
2023-03-07T11:09:34.855Z,4.23
2023-03-07T11:12:24.266Z,4.13
2023-03-07T11:14:58.162Z,4.50
2023-03-07T11:17:41.305Z,4.90
2023-03-07T11:20:24.965Z,6.07
2023-03-07T11:23:20.194Z,5.70
2023-03-07T11:25:54.820Z,6.17
2023-03-07T11:28:33.529Z,4.70
2023-03-07T11:31:21.194Z,6.27
2023-03-07T11:34:00.364Z,5.27
2023-03-07T11:36:35.993Z,4.83
2023-03-07T11:39:19.158Z,4.30
2023-03-07T11:42:03.955Z,5.13
2023-03-07T11:44:47.040Z,5.67
2023-03-07T11:47:37.523Z,5.67
2023-03-07T11:50:26.923Z,6.57
2023-03-07T11:53:45.775Z,4.37
2023-03-07T11:56:58.634Z,4.93
2023-03-07T12:00:20.533Z,5.00
2023-03-07T12:03:33.177Z,4.93
2023-03-07T12:06:32.088Z,5.00
2023-03-07T12:09:43.652Z,7.30
2023-03-07T12:12:38.011Z,5.53
2023-03-07T12:15:35.775Z,9.50
2023-03-07T12:18:38.009Z,6.70
2023-03-07T12:21:26.642Z,5.70
2023-03-07T12:24:04.948Z,8.60
2023-03-07T12:26:45.613Z,5.33
2023-03-07T12:29:34.489Z,5.67
2023-03-07T12:32:14.199Z,8.03
2023-03-07T12:34:51.322Z,6.03
2023-03-07T12:37:27.505Z,6.60
2023-03-07T12:40:04.668Z,6.17
2023-03-07T12:42:44.009Z,6.63
2023-03-07T12:45:25.387Z,6.33
2023-03-07T12:48:09.859Z,6.43
2023-03-07T12:50:52.512Z,6.27
2023-03-07T12:53:37.815Z,6.27
2023-03-07T12:56:17.117Z,6.70
2023-03-07T12:59:02.599Z,8.33
2023-03-07T13:01:40.102Z,6.63
2023-03-07T13:04:20.360Z,7.90
2023-03-07T13:06:51.675Z,5.37
2023-03-07T13:09:26.123Z,6.97
2023-03-07T13:12:36.638Z,7.07
2023-03-07T13:15:11.029Z,7.80
2023-03-07T13:18:04.847Z,5.47
2023-03-07T13:20:45.973Z,6.67
2023-03-07T13:23:29.230Z,6.20
2023-03-07T13:26:04.223Z,7.13
2023-03-07T13:29:02.848Z,6.40
2023-03-07T13:31:53.735Z,6.33
2023-03-07T13:34:52.663Z,5.60
2023-03-07T13:37:54.903Z,11.90
2023-03-07T13:40:58.429Z,6.70
2023-03-07T13:44:04.254Z,7.83
2023-03-07T13:46:55.622Z,6.33
2023-03-07T13:49:48.024Z,5.37
2023-03-07T13:52:49.741Z,7.17
2023-03-07T13:55:34.828Z,8.47
2023-03-07T13:58:26.678Z,7.07
2023-03-07T14:01:02.924Z,9.93
2023-03-07T14:03:40.068Z,6.30
2023-03-07T14:06:19.870Z,8.67
2023-03-07T14:08:53.334Z,4.90
2023-03-07T14:11:32.712Z,6.07
2023-03-07T14:14:47.449Z,9.13
2023-03-07T14:17:57.075Z,5.83
2023-03-07T14:20:57.020Z,7.13
2023-03-07T14:24:15.643Z,7.63
2023-03-07T14:26:51.879Z,7.37
2023-03-07T14:29:24.974Z,5.97
2023-03-07T14:32:00.670Z,8.90
2023-03-07T14:34:35.023Z,10.57
2023-03-07T14:37:13.983Z,7.00
2023-03-07T14:40:04.426Z,5.40
2023-03-07T14:42:46.814Z,4.70
2023-03-07T14:45:39.750Z,5.50
2023-03-07T14:48:35.240Z,7.33
2023-03-07T14:51:17.832Z,4.90
2023-03-07T14:53:48.244Z,5.77
2023-03-07T14:56:27.818Z,3.57
2023-03-07T14:59:03.047Z,6.20
2023-03-07T15:01:35.694Z,5.23
2023-03-07T15:04:23.245Z,4.00
2023-03-07T15:06:59.594Z,2.37
2023-03-07T15:09:30.585Z,5.40
2023-03-07T15:12:11.074Z,2.90
2023-03-07T15:14:49.765Z,2.80
2023-03-07T15:17:26.591Z,2.10
2023-03-07T15:20:03.950Z,6.17
2023-03-07T15:22:40.255Z,4.23
2023-03-07T15:25:23.959Z,2.70
2023-03-07T15:28:07.885Z,2.43
2023-03-07T15:30:42.169Z,2.13
2023-03-07T15:33:23.617Z,2.00
2023-03-07T15:36:11.913Z,2.90
2023-03-07T15:38:43.548Z,2.20
2023-03-07T15:41:30.205Z,2.57
2023-03-07T15:44:21.166Z,3.20
2023-03-07T15:46:57.599Z,12.83
2023-03-07T15:49:39.177Z,11.17
2023-03-07T15:52:19.031Z,24.97
2023-03-07T15:54:54.900Z,34.97
2023-03-07T15:57:29.718Z,16.03
2023-03-07T16:00:08.306Z,7.77
2023-03-07T16:02:48.382Z,11.17
2023-03-07T16:05:41.688Z,7.83
2023-03-07T16:08:17.511Z,4.57
2023-03-07T16:10:55.970Z,5.13
2023-03-07T16:13:33.837Z,4.27
2023-03-07T16:16:22.558Z,5.53
2023-03-07T16:18:54.079Z,6.00
2023-03-07T16:21:24.253Z,6.53
2023-03-07T16:23:54.704Z,4.13
2023-03-07T16:26:27.443Z,12.50
2023-03-07T16:28:58.155Z,5.60
2023-03-07T16:31:33.042Z,4.70
2023-03-07T16:34:03.616Z,7.33
2023-03-07T16:36:33.698Z,5.77
2023-03-07T16:39:05.086Z,9.10
2023-03-07T16:41:35.261Z,5.50
2023-03-07T16:44:05.961Z,6.77
2023-03-07T16:46:38.818Z,8.53
2023-03-07T16:49:09.004Z,4.67
2023-03-07T16:51:39.050Z,5.03
2023-03-07T16:54:10.650Z,5.23
2023-03-07T16:56:45.299Z,4.20
2023-03-07T16:59:18.914Z,4.17
2023-03-07T17:01:54.662Z,4.23
2023-03-07T17:04:24.888Z,7.60
2023-03-07T17:07:04.848Z,8.13
2023-03-07T17:09:35.306Z,11.97
2023-03-07T17:12:06.098Z,10.37
2023-03-07T17:14:40.408Z,9.33
2023-03-07T17:17:22.294Z,8.43
2023-03-07T17:19:52.477Z,8.90
2023-03-07T17:22:22.689Z,6.87
2023-03-07T17:24:55.544Z,6.90
2023-03-07T17:27:26.093Z,9.30
2023-03-07T17:29:57.719Z,8.57
2023-03-07T17:32:30.453Z,11.47
2023-03-07T17:35:00.658Z,8.60
2023-03-07T17:37:31.450Z,8.37
2023-03-07T17:40:02.134Z,8.80
2023-03-07T17:42:32.907Z,9.70
2023-03-07T17:45:02.982Z,9.37
2023-03-07T17:47:36.300Z,8.87
2023-03-07T17:50:13.779Z,11.43
2023-03-07T17:52:44.186Z,11.57
2023-03-07T17:55:14.481Z,9.80
2023-03-07T17:57:44.894Z,11.43
2023-03-07T18:00:19.116Z,15.47
2023-03-07T18:02:55.671Z,11.10
2023-03-07T18:05:27.931Z,14.40
2023-03-07T18:07:58.593Z,13.67
2023-03-07T18:10:28.757Z,13.23
2023-03-07T18:13:00.298Z,16.77
2023-03-07T18:15:30.581Z,14.83
2023-03-07T18:18:08.903Z,11.63
2023-03-07T18:20:39.146Z,10.73
2023-03-07T18:23:09.321Z,12.80
2023-03-07T18:25:41.642Z,11.97
2023-03-07T18:28:14.171Z,11.27
2023-03-07T18:30:44.984Z,13.00
2023-03-07T18:33:17.720Z,14.67
2023-03-07T18:35:48.084Z,15.27
2023-03-07T18:38:18.159Z,12.93
2023-03-07T18:40:50.268Z,12.20
2023-03-07T18:43:20.455Z,12.37
2023-03-07T18:45:53.236Z,12.07
2023-03-07T18:48:25.959Z,12.97
2023-03-07T18:51:01.312Z,11.03
2023-03-07T18:53:34.552Z,13.10
2023-03-07T18:56:09.866Z,10.90
2023-03-07T18:58:40.487Z,10.93
2023-03-07T19:01:16.423Z,9.57
2023-03-07T19:03:51.909Z,9.93
2023-03-07T19:06:27.029Z,10.90
2023-03-07T19:08:58.161Z,12.83
2023-03-07T19:11:29.311Z,9.03
2023-03-07T19:14:00.138Z,8.87
2023-03-07T19:16:31.828Z,9.87
2023-03-07T19:19:04.633Z,9.10
2023-03-07T19:21:36.094Z,10.50
2023-03-07T19:24:08.182Z,10.60
2023-03-07T19:26:38.294Z,9.33
2023-03-07T19:29:09.764Z,10.03
2023-03-07T19:31:40.996Z,10.67
2023-03-07T19:34:14.312Z,8.10
2023-03-07T19:36:44.599Z,8.73
2023-03-07T19:39:20.338Z,9.60
2023-03-07T19:41:51.122Z,8.87
2023-03-07T19:44:24.680Z,13.20
2023-03-07T19:46:55.895Z,16.03
2023-03-07T19:49:29.291Z,13.57
2023-03-07T19:51:59.496Z,14.07
2023-03-07T19:54:29.652Z,14.30
2023-03-07T19:57:00.027Z,12.77
2023-03-07T19:59:30.360Z,13.90
2023-03-07T20:02:00.470Z,16.63
2023-03-07T20:04:33.211Z,15.30
2023-03-07T20:07:03.457Z,16.10
2023-03-07T20:09:33.677Z,18.17
2023-03-07T20:12:03.855Z,15.07
2023-03-07T20:14:34.032Z,14.63
2023-03-07T20:17:06.659Z,16.30
2023-03-07T20:19:39.578Z,15.70
2023-03-07T20:22:09.738Z,14.60
2023-03-07T20:24:39.884Z,14.20
2023-03-07T20:27:10.006Z,15.73
2023-03-07T20:29:40.231Z,15.83
2023-03-07T20:32:11.603Z,13.83
2023-03-07T20:34:44.796Z,14.80
2023-03-07T20:37:15.123Z,15.80
2023-03-07T20:39:45.244Z,14.50
2023-03-07T20:42:15.529Z,14.70
2023-03-07T20:44:45.746Z,17.60
2023-03-07T20:47:15.942Z,15.90
2023-03-07T20:49:48.697Z,14.97
2023-03-07T20:52:18.984Z,15.77
2023-03-07T20:54:49.195Z,16.13
2023-03-07T20:57:19.392Z,16.73
2023-03-07T20:59:49.650Z,17.73
2023-03-07T21:02:19.824Z,16.60
2023-03-07T21:04:52.922Z,16.93
2023-03-07T21:07:23.007Z,17.07
2023-03-07T21:09:53.416Z,12.67
2023-03-07T21:12:25.964Z,16.17
2023-03-07T21:14:58.633Z,14.43
2023-03-07T21:17:31.048Z,15.07
2023-03-07T21:20:04.808Z,13.43
2023-03-07T21:22:36.153Z,14.47
2023-03-07T21:25:06.620Z,13.23
2023-03-07T21:27:36.740Z,12.97
2023-03-07T21:30:08.249Z,14.17
2023-03-07T21:32:38.420Z,12.03
2023-03-07T21:35:15.510Z,10.97
2023-03-07T21:37:45.641Z,11.43
2023-03-07T21:40:20.357Z,8.67
2023-03-07T21:42:50.600Z,7.67
2023-03-07T21:45:20.853Z,10.67
2023-03-07T21:47:53.391Z,9.77
2023-03-07T21:50:26.518Z,9.43
2023-03-07T21:52:56.620Z,9.43
2023-03-07T21:55:27.213Z,7.20
2023-03-07T21:57:57.354Z,9.50
2023-03-07T22:00:27.936Z,11.50
2023-03-07T22:02:58.236Z,10.27
2023-03-07T22:05:30.990Z,12.03
2023-03-07T22:08:01.079Z,10.07
2023-03-07T22:10:31.287Z,9.97
2023-03-07T22:13:02.045Z,8.13
2023-03-07T22:15:32.322Z,8.43
2023-03-07T22:18:02.514Z,9.43
2023-03-07T22:20:35.278Z,9.57
2023-03-07T22:23:10.280Z,8.17
2023-03-07T22:25:42.965Z,8.30
2023-03-07T22:28:16.642Z,8.80
2023-03-07T22:30:52.384Z,7.90
2023-03-07T22:33:26.679Z,10.53
2023-03-07T22:36:04.981Z,8.60
2023-03-07T22:38:36.083Z,9.10
2023-03-07T22:41:09.082Z,8.73
2023-03-07T22:43:40.758Z,10.17
2023-03-07T22:46:12.296Z,10.03
2023-03-07T22:48:43.204Z,9.83
2023-03-07T22:51:28.241Z,11.23
2023-03-07T22:53:58.689Z,9.83
2023-03-07T22:56:30.645Z,9.13
2023-03-07T22:59:00.741Z,9.17
2023-03-07T23:01:34.730Z,10.33
2023-03-07T23:04:08.493Z,9.93
2023-03-07T23:06:42.434Z,10.43
2023-03-07T23:09:12.927Z,8.40
2023-03-07T23:11:43.843Z,10.60
2023-03-07T23:14:13.926Z,9.37
2023-03-07T23:16:44.761Z,10.43
2023-03-07T23:19:14.926Z,11.20
2023-03-07T23:21:47.891Z,11.67
2023-03-07T23:24:18.035Z,9.97
2023-03-07T23:26:48.874Z,9.90
2023-03-07T23:29:27.654Z,9.37
2023-03-07T23:31:59.008Z,11.77
2023-03-07T23:34:29.063Z,8.03
2023-03-07T23:37:02.073Z,9.97
2023-03-07T23:39:32.379Z,8.67
2023-03-07T23:42:03.123Z,8.73
2023-03-07T23:44:33.255Z,6.60
2023-03-07T23:47:03.454Z,7.47
2023-03-07T23:49:33.625Z,6.50
2023-03-07T23:52:06.748Z,7.17
2023-03-07T23:54:36.811Z,7.70
2023-03-07T23:57:07.191Z,7.60
2023-03-07T23:59:39.868Z,6.70
